Airfield :
LOGIN :

Register | Disclaimer

   EN    FR    IT 

 










Legend :    VFR   Marginal VFR   IFR   Intensive IFR   Very Intensive IFR
Visi :
Ceiling :
>= 8 km
>= 3000ft
5 to 8 km
1000 to 3000 ft
1500m to 5 km
500 to 1000 ft
800 to 1500m
200 to 500 ft
< 800m
< 200 ft
Symbols :   Thunderstorms  Fog  Heavy snow  Heavy precipitations  Wind > 20 kt
SIGMETs :     Misc.  Thunderstorms  Icing  Turbulence  Mountain Waves  Volcanic Ashes







- Airport Elevation : 79 ft
- IATA code : SPU


LDSP - Split

CURRENT METAR :
  • 220900Z 03003KT 9999 BKN057 14/06 Q1022 NOSIG

EXPIRED METARs :
  • 220830Z 03003KT 360V060 9999 BKN055 13/06 Q1022 NOSIG
  • 220800Z VRB02KT 9999 BKN055 12/07 Q1022 NOSIG
  • 220730Z 00000KT 9999 BKN055 11/06 Q1022 NOSIG
  • 220700Z 35001KT 9999 BKN055 10/06 Q1022 NOSIG
  • 220630Z 00000KT 9999 BKN055 09/05 Q1022 NOSIG

TAF TAF LDSP
Valid from the 22 at 06:00 until the 23 at 06:00 UTC


220525Z 2206/2306 VRB02KT 9999 FEW050 TX14/2212Z TN09/2304Z
No reported NOTAMs for that airfield.



MET'MAP, your aeronautical weather chart ! - Copyright ORBIFLY December 2007 - Disclaimer

ORBIFLY MET'MAP TEAM :

Programming & Development : Alexandra Zaïnal
Concept & Development : Baudouin d'Aumeries
Co-Development & Prog : Marc-Olivier Méhu
Technical & hardware support : Manuel Goepfert

Contact : metmap@orbifly.com




SOURCES & CREDITS :

   NOAA